Latest Weather Observations for Geelong Racecourse

IDV60801

Issued at 10:02 pm EDT Saturday 25 February 2017 (issued every 30 minutes, with the page automatically refreshed every 10 minutes)

About weather observations | Map of weather stations | Latest weather observations for VIC | Other Formats
Station Details ID: 087184 Name: GEELONG RACECOURSE Lat: -38.17 Lon: 144.38 Height: 12.9 m
Data from the previous 72 hours. | See also: Recent months at Geelong Racecourse
Date/Time
EDT
Temp
°C
App
Temp
°C
Dew
Point
°C
Rel
Hum
%
Delta-T
°C
Wind Press
QNH
hPa
Press
MSL
hPa
Rain since
9am
mm
Dir  Spd
km/h
Gust
km/h
Spd
kts
Gust
kts
25/10:00pm 16.6 15.5 15.3 92 0.8 S 15 20 8 11 1022.6 1022.6 0.0
25/09:30pm 16.8 15.8 15.5 92 0.8 SSE 15 22 8 12 1022.8 1022.8 0.0
25/09:00pm 17.0 15.6 14.6 86 1.4 S 15 22 8 12 1022.6 1022.6 0.0
25/08:30pm 16.2 14.4 12.2 77 2.2 S 13 19 7 10 1022.6 1022.6 0.0
25/08:00pm 16.1 13.8 10.6 70 2.9 S 13 20 7 11 1022.5 1022.5 0.0
25/07:30pm 16.6 12.9 9.5 63 3.7 S 19 28 10 15 1022.6 1022.6 0.0
25/07:00pm 17.1 13.1 10.5 65 3.5 S 22 33 12 18 1022.6 1022.6 0.0
25/06:30pm 17.6 13.0 9.5 59 4.2 S 24 35 13 19 1022.8 1022.8 0.0
25/06:00pm 18.4 13.5 10.0 58 4.4 S 26 33 14 18 1022.8 1022.8 0.0
25/05:30pm 18.6 14.4 9.7 56 4.7 S 22 30 12 16 1022.8 1022.8 0.0
25/05:00pm 19.0 14.7 9.2 53 5.1 S 22 32 12 17 1022.8 1022.8 0.0
25/04:30pm 19.5 14.7 8.8 50 5.6 S 24 33 13 18 1023.0 1023.0 0.0
25/04:00pm 19.4 14.4 9.6 53 5.2 S 26 33 14 18 1023.2 1023.2 0.0
25/03:30pm 19.6 15.0 9.5 52 5.4 S 24 32 13 17 1023.2 1023.2 0.0
25/03:00pm 19.6 15.2 8.9 50 5.6 S 22 32 12 17 1023.4 1023.4 0.0
25/02:30pm 19.3 14.9 8.9 51 5.4 SSW 22 35 12 19 1023.6 1023.6 0.0
25/02:00pm 19.0 14.5 8.6 51 5.4 S 22 33 12 18 1023.7 1023.7 0.0
25/01:30pm 18.8 14.6 8.2 50 5.5 S 20 32 11 17 1024.0 1024.0 0.0
25/01:00pm 18.1 13.3 8.9 55 4.8 SSW 24 35 13 19 1024.5 1024.5 0.0
25/12:30pm 19.0 15.0 8.9 52 5.3 S 20 30 11 16 1024.8 1024.8 0.0
25/12:00pm 17.3 13.0 7.9 54 4.7 SSE 20 32 11 17 1025.1 1025.1 0.0
25/11:30am 17.6 13.2 7.4 51 5.1 S 20 33 11 18 1025.4 1025.4 0.0
25/11:00am 17.6 13.0 6.5 48 5.5 S 20 33 11 18 1025.8 1025.8 0.0
25/10:30am 16.3 11.7 6.4 52 4.8 S 20 32 11 17 1025.8 1025.8 0.0
25/10:00am 16.7 11.8 7.1 53 4.7 S 22 35 12 19 1025.7 1025.7 0.0
25/09:30am 16.1 11.9 7.6 57 4.2 S 19 24 10 13 1025.5 1025.5 0.0
25/09:00am 16.6 12.2 7.3 54 4.6 S 20 28 11 15 1025.6 1025.6 0.0
25/08:30am 15.7 12.0 8.0 60 3.9 S 17 24 9 13 1025.4 1025.4 0.0
25/08:00am 14.4 11.4 7.7 64 3.3 SSW 13 17 7 9 1025.3 1025.3 0.0
25/07:30am 14.1 11.1 7.6 65 3.2 S 13 17 7 9 1025.1 1025.1 0.0
25/07:00am 14.3 11.7 7.6 64 3.3 SSW 11 19 6 10 1025.0 1025.0 0.0
25/06:30am 13.1 10.8 7.5 69 2.7 S 9 13 5 7 1024.6 1024.6 0.0
25/06:00am 13.6 11.7 7.6 67 2.9 S 7 13 4 7 1024.5 1024.5 0.0
25/05:30am 13.8 11.0 6.9 63 3.3 S 11 17 6 9 1024.4 1024.4 0.0
25/05:00am 13.8 10.3 7.1 64 3.2 S 15 22 8 12 1024.4 1024.4 0.0
25/04:30am 14.7 11.1 8.2 65 3.3 S 17 22 9 12 1024.6 1024.6 0.0
25/04:00am 14.0 11.7 9.0 72 2.5 S 11 15 6 8 1024.7 1024.7 0.0
25/03:30am 14.3 11.6 9.1 71 2.6 S 13 17 7 9 1024.9 1024.9 0.0
25/03:00am 13.8 11.6 9.5 75 2.2 S 11 15 6 8 1025.0 1025.0 0.0
25/02:30am 13.7 11.5 9.4 75 2.2 S 11 15 6 8 1025.3 1025.3 0.0
25/02:00am 13.8 11.6 9.5 75 2.2 S 11 17 6 9 1025.4 1025.4 0.0
25/01:30am 14.3 11.9 9.9 75 2.3 S 13 20 7 11 1025.5 1025.5 0.0
25/01:00am 14.9 13.2 11.1 78 2.0 S 11 19 6 10 1025.5 1025.5 0.0
25/12:30am 14.8 14.5 13.2 90 0.9 S 7 11 4 6 1025.5 1025.5 0.0
25/12:00am 14.1 12.9 11.6 85 1.3 SSW 9 11 5 6 1025.6 1025.6 0.0
 
Date/Time
EDT
Temp
°C
App
Temp
°C
Dew
Point
°C
Rel
Hum
%
Delta-T
°C
Wind Press
QNH
hPa
Press
MSL
hPa
Rain since
9am
mm
Dir  Spd
km/h
Gust
km/h
Spd
kts
Gust
kts
24/11:30pm 13.9 12.9 11.1 83 1.5 SSW 7 9 4 5 1025.7 1025.7 0.0
24/11:00pm 14.2 12.8 10.8 80 1.8 S 9 13 5 7 1025.8 1025.8 0.0
24/10:30pm 14.9 13.1 10.7 76 2.2 SSW 11 17 6 9 1026.0 1026.0 0.0
24/10:00pm 15.8 14.5 12.5 81 1.8 SSW 11 17 6 9 1026.1 1026.1 0.0
24/09:30pm 15.3 13.4 13.0 86 1.3 S 15 22 8 12 1026.1 1026.1 0.0
24/09:00pm 16.5 13.8 10.4 67 3.2 SSW 15 24 8 13 1025.9 1025.9 0.0
24/08:30pm 15.6 13.4 9.5 67 3.2 SSW 11 15 6 8 1025.7 1025.7 0.0
24/08:00pm 17.0 14.0 9.4 61 3.9 SSW 15 24 8 13 1025.4 1025.4 0.0
24/07:30pm 17.2 13.3 9.6 61 4.0 SSW 20 28 11 15 1025.3 1025.3 0.0
24/07:00pm 17.9 14.1 9.8 59 4.3 SSW 20 30 11 16 1025.2 1025.2 0.0
24/06:30pm 18.4 14.4 9.2 55 4.8 SSW 20 28 11 15 1025.2 1025.2 0.0
24/06:00pm 17.9 13.6 9.3 57 4.5 S 22 30 12 16 1025.1 1025.1 0.0
24/05:30pm 19.6 15.0 9.8 53 5.2 SSW 24 33 13 18 1025.0 1025.0 0.0
24/05:00pm 18.8 14.5 9.3 54 5.0 S 22 30 12 16 1024.9 1024.9 0.0
24/04:30pm 19.1 14.3 9.0 52 5.3 S 24 35 13 19 1024.9 1024.9 0.0
24/04:00pm 19.1 14.5 9.6 54 5.0 S 24 35 13 19 1024.9 1024.9 0.0
24/03:30pm 19.2 14.6 9.7 54 5.0 S 24 35 13 19 1025.0 1025.0 0.0
24/03:00pm 19.4 15.2 9.9 54 5.0 S 22 32 12 17 1025.2 1025.2 0.0
24/02:30pm 18.8 14.5 9.3 54 5.0 S 22 32 12 17 1025.4 1025.4 0.0
24/02:00pm 19.3 15.5 8.9 51 5.4 SSW 19 28 10 15 1025.6 1025.6 0.0
24/01:30pm 18.6 14.7 8.6 52 5.2 SSW 19 28 10 15 1025.5 1025.5 0.0
24/01:00pm 18.9 15.0 8.6 51 5.3 SSW 19 28 10 15 1025.5 1025.5 0.0
24/12:30pm 18.1 14.1 8.4 53 5.0 SW 19 28 10 15 1025.6 1025.6 0.0
24/12:00pm 18.1 14.1 8.4 53 5.0 SSW 19 28 10 15 1025.8 1025.8 0.0
24/11:30am 17.6 14.1 8.7 56 4.6 SSW 17 22 9 12 1025.9 1025.9 0.0
24/11:00am 17.8 14.5 8.1 53 4.9 SSW 15 22 8 12 1025.8 1025.8 0.0
24/10:30am 17.8 14.1 7.8 52 5.1 SSW 17 28 9 15 1025.6 1025.6 0.0
24/10:00am 17.9 15.5 8.7 55 4.7 SW 11 22 6 12 1025.5 1025.5 0.0
24/09:30am 16.5 13.4 8.7 60 4.0 SW 15 19 8 10 1025.2 1025.2 0.0
24/09:00am 16.4 14.9 9.1 62 3.7 WSW 7 13 4 7 1024.9 1024.9 0.2
24/08:30am 15.2 13.1 9.8 70 2.8 SW 11 15 6 8 1024.6 1024.6 0.2
24/08:00am 14.9 12.9 10.1 73 2.5 SW 11 17 6 9 1024.3 1024.3 0.2
24/07:30am 14.5 12.0 10.9 79 1.9 SW 15 19 8 10 1024.0 1024.0 0.2
24/07:00am 14.6 12.7 11.9 84 1.5 SW 13 17 7 9 1023.7 1023.7 0.2
24/06:30am 14.6 13.0 11.7 83 1.6 SW 11 17 6 9 1023.5 1023.5 0.2
24/06:00am 14.6 14.3 13.3 92 0.7 WSW 7 15 4 8 1023.2 1023.2 0.2
24/05:30am 14.5 14.4 13.4 93 0.6 W 6 7 3 4 1023.0 1023.0 0.2
24/05:00am 14.6 14.6 13.5 93 0.6 SW 6 9 3 5 1022.7 1022.7 0.2
24/04:30am 14.7 14.5 13.6 93 0.6 SW 7 9 4 5 1022.7 1022.7 0.2
24/04:00am 14.7 14.7 13.7 94 0.6 SW 6 7 3 4 1022.7 1022.7 0.2
24/03:30am 14.7 14.7 13.7 94 0.6 SW 6 7 3 4 1022.7 1022.7 0.2
24/03:00am 14.9 14.8 13.9 94 0.6 SW 7 13 4 7 1023.1 1023.1 0.2
24/02:30am 15.9 14.5 14.6 92 0.7 SW 15 22 8 12 1023.2 1023.2 0.0
24/02:00am 16.1 15.6 14.8 92 0.7 SW 11 15 6 8 1023.1 1023.1 0.0
24/01:30am 16.1 15.2 14.8 92 0.7 SSW 13 19 7 10 1023.3 1023.3 0.0
24/01:00am 16.3 15.8 15.0 92 0.7 SSW 11 17 6 9 1023.2 1023.2 0.0
24/12:30am 16.2 15.3 14.9 92 0.7 SSW 13 17 7 9 1023.3 1023.3 0.0
24/12:00am 16.1 16.0 15.0 93 0.6 SSW 9 13 5 7 1023.2 1023.2 0.0
 
Date/Time
EDT
Temp
°C
App
Temp
°C
Dew
Point
°C
Rel
Hum
%
Delta-T
°C
Wind Press
QNH
hPa
Press
MSL
hPa
Rain since
9am
mm
Dir  Spd
km/h
Gust
km/h
Spd
kts
Gust
kts
23/11:30pm 16.6 15.9 15.3 92 0.8 SW 13 19 7 10 1023.1 1023.1 0.0
23/11:00pm 16.7 16.8 15.4 92 0.8 SSW 9 13 5 7 1023.1 1023.1 0.0
23/10:30pm 16.7 17.2 15.6 93 0.6 SW 7 11 4 6 1022.9 1022.9 0.0
23/10:00pm 16.5 16.9 15.4 93 0.6 SW 7 11 4 6 1022.6 1022.6 0.0
23/09:30pm 16.3 15.9 15.2 93 0.6 S 11 17 6 9 1022.1 1022.1 0.0
23/09:00pm 16.5 15.4 15.4 93 0.6 SSW 15 22 8 12 1021.5 1021.5 0.0
23/08:30pm 16.9 15.5 15.6 92 0.8 SSW 17 24 9 13 1020.8 1020.8 0.0
23/08:00pm 17.6 15.5 16.3 92 0.8 SSW 22 32 12 17 1020.4 1020.4 0.0
23/07:30pm 18.4 16.5 16.6 89 1.1 S 22 35 12 19 1020.0 1020.0 0.0
23/07:00pm 19.3 16.5 15.4 78 2.3 S 24 33 13 18 1019.8 1019.8 0.0
23/06:30pm 19.6 16.6 14.8 74 2.8 S 24 32 13 17 1019.6 1019.6 0.0
23/06:00pm 20.2 17.6 13.9 67 3.6 S 20 26 11 14 1019.4 1019.4 0.0
23/05:30pm 21.2 18.7 13.6 62 4.4 S 19 26 10 14 1018.8 1018.8 0.0
23/05:00pm 21.2 18.8 13.9 63 4.2 S 19 24 10 13 1018.3 1018.3 0.0
23/04:30pm 22.9 21.6 14.7 60 4.9 SSE 15 22 8 12 1018.1 1018.1 0.0
23/04:00pm 23.1 21.9 14.1 57 5.3 S 13 20 7 11 1018.0 1018.0 0.0
23/03:30pm 22.3 21.2 14.4 61 4.6 SSE 13 19 7 10 1018.1 1018.1 0.0
23/03:00pm 24.3 22.0 11.9 45 7.0 W 15 24 8 13 1018.2 1018.2 0.0
23/02:30pm 23.3 20.6 11.7 48 6.5 WSW 17 24 9 13 1018.2 1018.2 0.0
23/02:00pm 24.4 22.2 12.0 46 7.0 NW 15 22 8 12 1018.1 1018.1 0.0
23/01:30pm 22.6 20.2 12.8 54 5.6 W 17 26 9 14 1018.3 1018.3 0.0
23/01:00pm 22.5 20.4 12.4 52 5.7 WNW 15 24 8 13 1018.1 1018.1 0.0
23/12:30pm 22.3 19.9 12.5 53 5.6 W 17 28 9 15 1018.2 1018.2 0.0
23/12:00pm 22.1 19.1 12.1 53 5.6 WNW 19 32 10 17 1018.3 1018.3 0.0
23/11:30am 21.2 19.2 12.6 58 4.9 WNW 15 24 8 13 1018.3 1018.3 0.0
23/11:00am 20.2 17.3 12.4 61 4.4 W 19 28 10 15 1018.1 1018.1 0.0
23/10:30am 20.8 17.9 13.0 61 4.4 W 20 30 11 16 1017.7 1017.7 0.0
23/10:00am 20.2 17.5 12.9 63 4.1 W 19 30 10 16 1017.2 1017.2 0.0
23/09:30am 19.4 16.8 13.1 67 3.6 WNW 19 30 10 16 1016.9 1016.9 0.0
23/09:00am 18.6 17.4 12.8 69 3.2 NW 11 19 6 10 1016.7 1016.7 0.0
23/08:30am 17.7 16.8 12.6 72 2.8 NW 9 11 5 6 1016.4 1016.4 0.0
23/08:00am 17.1 16.6 12.0 72 2.8 NW 6 13 3 7 1016.1 1016.1 0.0
23/07:30am 16.4 15.4 11.1 71 2.8 WNW 7 13 4 7 1015.6 1015.6 0.0
23/07:00am 15.8 15.3 10.6 71 2.8 NW 4 7 2 4 1014.9 1014.9 0.0
23/06:30am 16.4 15.3 10.7 69 3.0 NW 7 13 4 7 1014.3 1014.3 0.0
23/06:00am 16.2 15.1 10.5 69 3.0 NNW 7 9 4 5 1013.8 1013.8 0.0
23/05:30am 16.8 15.8 10.9 68 3.2 NNW 7 13 4 7 1013.3 1013.3 0.0
23/05:00am 16.8 16.4 11.1 69 3.1 NNW 4 9 2 5 1013.2 1013.2 0.0
23/04:30am 17.2 16.4 11.0 67 3.3 NNW 6 9 3 5 1012.9 1012.9 0.0
23/04:00am 17.3 16.4 11.3 68 3.3 N 7 9 4 5 1012.6 1012.6 0.0
23/03:30am 18.3 17.2 11.8 66 3.6 NW 9 17 5 9 1012.4 1012.4 0.0
23/03:00am 17.7 17.6 12.2 70 3.0 NNW 4 11 2 6 1012.4 1012.4 0.0
23/02:30am 17.9 17.6 12.6 71 3.0 NNW 6 7 3 4 1012.3 1012.3 0.0
23/02:00am 18.0 17.5 12.7 71 3.0 NNW 7 9 4 5 1012.3 1012.3 0.0
23/01:30am 18.1 17.7 12.3 69 3.2 NNW 6 9 3 5 1012.3 1012.3 0.0
23/01:00am 18.5 18.0 12.0 66 3.6 NW 6 7 3 4 1011.8 1011.8 0.0
23/12:30am 19.1 18.0 11.9 63 4.0 NW 9 13 5 7 1011.5 1011.5 0.0
23/12:00am 20.1 18.8 11.3 57 4.8 WNW 9 11 5 6 1011.0 1011.0 0.0
 
Date/Time
EDT
Temp
°C
App
Temp
°C
Dew
Point
°C
Rel
Hum
%
Delta-T
°C
Wind Press
QNH
hPa
Press
MSL
hPa
Rain since
9am
mm
Dir  Spd
km/h
Gust
km/h
Spd
kts
Gust
kts
22/11:30pm 20.5 19.2 11.4 56 5.0 WNW 9 15 5 8 1011.0 1011.0 0.0
22/11:00pm 19.6 20.3 13.3 67 3.6 S 2 4 1 2 1010.5 1010.5 0.0
22/10:30pm 19.9 19.3 13.4 66 3.7 S 9 11 5 6 1010.2 1010.2 0.0

Other Formats:

Comma delimited format used in spreadsheet applications
http://www.bom.gov.au/fwo/IDV60801/IDV60801.94857.axf

JavaScript Object Notation format (JSON) in row-major order
http://www.bom.gov.au/fwo/IDV60801/IDV60801.94857.json